Time;durP1;ratioP1;P1;durP2;ratioP2;P2;SDS_P1;SDS_P2;PMS_P1;PMS_P2;Temp;Humidity;BMP_temperature;BMP_pressure;BME280_temperature;BME280_humidity;BME280_pressure;Samples;Min_cycle;Max_cycle;Signal;HPM_P1;HPM_P2
2021/01/04 00:02:20;;;;;;;13.18;3.78;;;;;;;0.05;4.55;1220229.00;5093066;28;20553;-79
2021/01/04 00:04:57;;;;;;;3.35;3.17;;;;;;;0.05;4.55;1201759.88;5093014;28;20092;-80
2021/01/04 00:08:00;;;;;;;5.53;5.05;;;;;;;0.05;4.55;1183291.25;5091956;28;20032;-79
2021/01/04 00:10:31;;;;;;;2.63;2.53;;;;;;;0.05;4.55;1169682.50;5093944;28;20024;-79
2021/01/04 00:13:09;;;;;;;5.60;2.85;;;;;;;0.05;4.55;1191067.25;5093776;28;20032;-79
2021/01/04 00:15:44;;;;;;;8.75;5.05;;;;;;;0.05;4.55;1206620.25;5093211;28;20024;-80
2021/01/04 00:18:22;;;;;;;11.65;5.90;;;;;;;0.05;4.55;1222173.13;5092962;28;20024;-79
2021/01/04 00:20:56;;;;;;;9.68;4.97;;;;;;;0.05;4.55;1237726.25;5091771;28;20032;-79
2021/01/04 00:23:39;;;;;;;4.68;4.03;;;;;;;0.05;4.56;1296050.88;5092250;28;20040;-80
2021/01/04 00:26:23;;;;;;;6.65;5.05;;;;;;;0.05;4.57;1343683.38;5092114;28;20113;-80
2021/01/04 00:28:50;;;;;;;2.80;2.60;;;;;;;0.05;4.57;1371874.38;5092176;28;20066;-80
2021/01/04 00:31:26;;;;;;;4.20;3.90;;;;;;;0.05;4.57;1384511.88;5093109;28;20032;-80
2021/01/04 00:34:04;;;;;;;5.18;4.80;;;;;;;0.05;4.57;1364097.50;5092002;28;20445;-80
2021/01/04 00:36:34;;;;;;;;;;;;;;;0.05;4.57;1347571.75;5092091;28;20036;-80
2021/01/04 00:39:05;;;;;;;3.60;3.38;;;;;;;0.05;4.57;1363125.38;5091592;28;19966;-80
2021/01/04 00:41:40;;;;;;;7.95;4.25;;;;;;;0.05;4.58;1370902.25;5091432;28;20036;-79
2021/01/04 00:44:13;;;;;;;6.07;4.55;;;;;;;0.05;4.57;1380623.38;5091419;28;20062;-80
2021/01/04 00:46:47;;;;;;;8.82;6.88;;;;;;;0.05;4.57;1379651.25;5091779;28;20028;-80
2021/01/04 00:49:20;;;;;;;23.17;6.40;;;;;;;0.05;4.58;1391316.63;5093827;28;20505;-79
2021/01/04 00:52:08;;;;;;;19.40;9.18;;;;;;;0.05;4.57;1356320.75;5095305;28;20028;-80
2021/01/04 00:54:52;;;;;;;7.38;6.88;;;;;;;0.05;4.57;1327157.75;5095638;28;20036;-82
2021/01/04 00:57:39;;;;;;;7.15;6.38;;;;;;;0.05;4.57;1289246.25;5095387;28;20043;-80
2021/01/04 01:00:47;;;;;;;16.93;7.73;;;;;;;0.05;4.57;1257167.63;5095643;28;20035;-80
2021/01/04 01:03:36;;;;;;;7.65;6.47;;;;;;;0.05;4.57;1228977.63;5062341;28;20028;-81
2021/01/04 01:06:37;;;;;;;9.70;5.82;;;;;;;0.05;4.57;1211480.50;5105892;28;20456;-81
2021/01/04 01:09:06;;;;;;;5.30;4.78;;;;;;;0.05;4.56;1187179.00;5083502;28;20043;-80
2021/01/04 01:12:27;;;;;;;10.90;7.63;;;;;;;0.05;4.56;1157045.50;5094983;28;20028;-80
2021/01/04 01:15:10;;;;;;;4.60;4.30;;;;;;;0.05;4.55;1111359.75;5070336;28;20036;-80
2021/01/04 01:17:45;;;;;;;8.52;6.93;;;;;;;0.05;4.55;1060814.50;5094916;28;20540;-81
2021/01/04 01:20:15;;;;;;;5.97;5.47;;;;;;;0.05;4.55;1016101.94;5094341;28;20024;-80
2021/01/04 01:22:42;;;;;;;4.47;4.15;;;;;;;0.05;4.55;1009297.94;5095079;28;20055;-81
2021/01/04 01:25:09;;;;;;;5.85;5.25;;;;;;;0.05;4.55;969446.13;5094846;28;20060;-81
2021/01/04 01:27:47;;;;;;;4.68;3.85;;;;;;;0.05;4.55;931538.75;5095132;28;20036;-81
2021/01/04 01:30:40;;;;;;;14.80;4.45;;;;;;;0.05;4.55;907239.31;5095207;28;20040;-80
2021/01/04 01:33:27;;;;;;;6.35;5.85;;;;;;;0.05;4.54;865445.25;5095164;28;20536;-80
2021/01/04 01:36:03;;;;;;;5.43;4.75;;;;;;;0.05;4.55;842118.25;5094780;28;20028;-80
2021/01/04 01:39:20;;;;;;;10.05;3.75;;;;;;;0.05;4.56;840173.88;5094852;28;20066;-80
2021/01/04 01:41:53;;;;;;;3.75;3.42;;;;;;;0.05;4.57;865444.75;5036960;28;20378;-79
2021/01/04 01:44:38;;;;;;;3.53;3.33;;;;;;;0.05;4.58;888771.88;5090918;28;20043;-79
2021/01/04 01:47:26;;;;;;;13.90;4.53;;;;;;;0.05;4.58;898491.56;5094039;28;20028;-79
2021/01/04 01:50:05;;;;;;;7.78;4.50;;;;;;;0.05;4.58;909183.25;5083197;28;20093;-80
2021/01/04 01:52:46;;;;;;;5.20;3.13;;;;;;;0.05;4.58;902379.44;5093835;28;20040;-79
2021/01/04 01:55:29;;;;;;;9.23;6.93;;;;;;;0.05;4.59;896547.63;5095260;28;20391;-80
2021/01/04 01:58:03;;;;;;;9.43;3.38;;;;;;;0.05;4.59;904323.38;5095100;28;20067;-80
2021/01/04 02:00:47;;;;;;;8.02;6.10;;;;;;;0.05;4.60;882940.13;5093537;28;20035;-80
2021/01/04 02:03:20;;;;;;;5.68;5.13;;;;;;;0.05;4.60;854753.25;5093767;28;20133;-79
2021/01/04 02:06:03;;;;;;;5.80;5.20;;;;;;;0.05;4.60;869332.63;5094958;28;20028;-79
2021/01/04 02:08:33;;;;;;;4.05;3.83;;;;;;;0.05;4.60;852809.31;5093828;28;20060;-80
2021/01/04 02:11:10;;;;;;;4.18;3.95;;;;;;;0.05;4.59;832398.31;5093397;28;20024;-80
2021/01/04 02:13:49;;;;;;;10.38;6.32;;;;;;;0.05;4.59;797408.25;5094487;28;20028;-80
2021/01/04 02:16:23;;;;;;;4.13;3.55;;;;;;;0.05;4.58;759502.88;5093424;28;20024;-80
2021/01/04 02:18:48;;;;;;;8.82;4.55;;;;;;;0.05;4.58;715766.31;5093949;28;20387;-80
2021/01/04 02:21:34;;;;;;;5.80;4.75;;;;;;;0.05;4.58;687580.88;5093577;28;20035;-80
2021/01/04 02:24:06;;;;;;;7.13;6.40;;;;;;;0.05;4.56;634126.38;5093221;28;20082;-79
2021/01/04 02:26:33;;;;;;;10.43;6.68;;;;;;;0.05;4.57;638014.00;5092970;28;20044;-79
2021/01/04 02:29:07;;;;;;;9.80;6.68;;;;;;;0.05;4.57;659395.69;5093118;28;20506;-79
2021/01/04 02:31:35;;;;;;;11.35;4.57;;;;;;;0.05;4.58;707019.13;5093752;28;20036;-79
2021/01/04 02:34:04;;;;;;;6.03;4.18;;;;;;;0.05;4.57;714794.38;5092866;28;20031;-79
2021/01/04 02:36:33;;;;;;;5.10;4.65;;;;;;;0.05;4.57;737148.50;5093124;28;20031;-79
2021/01/04 02:39:08;;;;;;;3.65;3.45;;;;;;;0.05;4.56;734232.75;5093076;28;20024;-79
2021/01/04 02:41:40;;;;;;;2.85;2.65;;;;;;;0.05;4.56;735204.75;5093575;28;20038;-79
2021/01/04 02:44:05;;;;;;;2.47;2.30;;;;;;;0.05;4.56;729373.19;5093038;28;20028;-79
2021/01/04 02:46:34;;;;;;;3.67;3.35;;;;;;;0.05;4.57;712850.63;5092864;28;20028;-79
2021/01/04 02:49:32;;;;;;;5.00;4.70;;;;;;;0.05;4.57;696328.06;5093573;28;20043;-79
2021/01/04 02:52:02;;;;;;;;;;;;;;;0.05;4.57;707019.13;5059870;28;20487;-80
2021/01/04 02:54:35;;;;;;;6.03;5.57;;;;;;;0.05;4.58;735204.75;5093021;28;19919;-80
2021/01/04 02:57:19;;;;;;;4.93;4.40;;;;;;;0.05;4.59;771166.00;5093878;28;20122;-81
2021/01/04 02:59:55;;;;;;;3.83;3.50;;;;;;;0.05;4.59;786717.00;5093296;28;20085;-80
2021/01/04 03:02:38;;;;;;;6.20;5.80;;;;;;;0.05;4.59;802268.00;5093867;28;20067;-80
2021/01/04 03:05:07;;;;;;;4.60;4.20;;;;;;;0.05;4.60;798380.25;5092928;28;20070;-80
2021/01/04 03:07:33;;;;;;;6.93;5.97;;;;;;;0.05;4.60;822678.81;5092649;28;20032;-80
2021/01/04 03:10:07;;;;;;;10.48;6.95;;;;;;;0.05;4.61;856697.13;5092559;28;20501;-81
2021/01/04 03:12:36;;;;;;;10.60;6.78;;;;;;;0.05;4.61;874192.38;5093732;28;20106;-80
2021/01/04 03:15:10;;;;;;;6.53;5.57;;;;;;;0.05;4.62;879052.25;5092432;28;20479;-80
2021/01/04 03:18:06;;;;;;;5.88;5.47;;;;;;;0.05;4.62;895575.25;5092880;28;20028;-80
2021/01/04 03:20:31;;;;;;;5.72;5.30;;;;;;;0.05;4.62;934454.13;5092375;28;20116;-80
2021/01/04 03:22:57;;;;;;;4.75;4.25;;;;;;;0.05;4.63;971389.19;5092501;28;20507;-79
2021/01/04 03:25:38;;;;;;;10.40;5.47;;;;;;;0.05;4.63;998605.00;5091792;28;20048;-79
2021/01/04 03:28:07;;;;;;;9.75;5.85;;;;;;;0.05;4.63;1031653.13;5092866;28;20123;-80
2021/01/04 03:30:33;;;;;;;7.03;6.32;;;;;;;0.05;4.64;1059841.50;5092327;28;20443;-80
2021/01/04 03:32:58;;;;;;;17.27;8.30;;;;;;;0.05;4.64;1096778.38;5101364;28;20040;-79
2021/01/04 03:35:24;;;;;;;6.13;4.45;;;;;;;0.05;4.65;1151212.38;5108440;28;20035;-80
2021/01/04 03:37:49;;;;;;;4.45;4.10;;;;;;;0.05;4.66;1195926.63;5092430;28;20126;-79
2021/01/04 03:40:15;;;;;;;9.00;4.57;;;;;;;0.05;4.66;1253278.50;5092330;28;20031;-79
2021/01/04 03:42:41;;;;;;;4.47;4.18;;;;;;;0.05;4.67;1319380.13;5093177;28;20031;-79
2021/01/04 03:45:08;;;;;;;6.95;6.32;;;;;;;0.05;4.68;1384511.00;5091937;28;20545;-79
2021/01/04 03:47:33;;;;;;;8.65;3.17;;;;;;;0.05;4.68;1429227.88;5091956;28;20062;-79
2021/01/04 03:50:05;;;;;;;5.05;4.50;;;;;;;0.05;4.69;1455475.38;5091313;28;20025;-80
2021/01/04 03:52:30;;;;;;;6.55;5.63;;;;;;;0.05;4.69;1455475.38;5092030;28;20042;-79
2021/01/04 03:54:55;;;;;;;7.72;6.38;;;;;;;0.05;4.69;1459363.50;5092049;28;20028;-78
2021/01/04 03:57:21;;;;;;;6.63;6.10;;;;;;;0.05;4.70;1473945.50;5092158;28;20399;-80
2021/01/04 03:59:46;;;;;;;6.50;5.25;;;;;;;0.05;4.70;1469084.75;5091959;28;20036;-79
2021/01/04 04:02:12;;;;;;;9.63;5.15;;;;;;;0.05;4.70;1446725.75;5091762;28;20123;-78
2021/01/04 04:04:40;;;;;;;4.82;4.50;;;;;;;0.05;4.70;1433116.00;5092203;28;20028;-79
2021/01/04 04:07:06;;;;;;;9.98;6.20;;;;;;;0.05;4.70;1415617.75;5091705;28;20031;-78
2021/01/04 04:09:31;;;;;;;5.28;4.80;;;;;;;0.05;4.70;1417562.00;5091938;28;20054;-79
2021/01/04 04:11:56;;;;;;;3.60;3.40;;;;;;;0.05;4.70;1415617.75;5093089;28;20032;-79
2021/01/04 04:14:22;;;;;;;11.75;6.35;;;;;;;0.05;4.70;1405896.50;5092843;28;20394;-78
2021/01/04 04:16:48;;;;;;;15.73;6.50;;;;;;;0.05;4.70;1395203.25;5091793;28;20028;-79
2021/01/04 04:19:14;;;;;;;5.50;3.70;;;;;;;0.05;4.70;1339793.63;5091766;28;20024;-79
2021/01/04 04:21:39;;;;;;;5.75;5.30;;;;;;;0.05;4.69;1302854.13;5091702;28;20073;-79
2021/01/04 04:24:05;;;;;;;7.03;6.47;;;;;;;0.05;4.69;1266887.50;5092512;28;20039;-79
2021/01/04 04:26:31;;;;;;;12.02;7.57;;;;;;;0.05;4.68;1291189.13;5095238;28;20087;-79
2021/01/04 04:28:57;;;;;;;3.78;3.58;;;;;;;0.05;4.69;1332016.88;5095558;28;20059;-79
2021/01/04 04:31:23;;;;;;;8.73;4.97;;;;;;;0.05;4.70;1370900.50;5096600;28;20050;-80
2021/01/04 04:33:49;;;;;;;3.15;2.90;;;;;;;0.05;4.70;1407840.75;5095928;28;20020;-79
2021/01/04 04:36:25;;;;;;;4.03;3.72;;;;;;;0.05;4.71;1431171.75;5096579;28;20032;-79
2021/01/04 04:38:52;;;;;;;9.30;6.30;;;;;;;0.05;4.71;1425339.00;5096027;28;20065;-79
2021/01/04 04:41:30;;;;;;;5.68;5.18;;;;;;;0.05;4.72;1425339.00;5095199;28;20040;-78
2021/01/04 04:44:25;;;;;;;3.90;3.58;;;;;;;0.05;4.72;1433116.00;5095687;28;20040;-78
2021/01/04 04:47:00;;;;;;;7.28;6.57;;;;;;;0.05;4.72;1403952.25;5089281;28;20043;-79
2021/01/04 04:50:24;;;;;;;10.68;8.20;;;;;;;0.05;4.72;1358263.13;5095226;28;20031;-80
2021/01/04 04:53:02;;;;;;;5.72;4.60;;;;;;;0.05;4.72;1374788.88;5061860;28;20047;-79
2021/01/04 04:55:27;;;;;;;4.15;3.90;;;;;;;0.05;4.72;1340765.25;5095483;28;20067;-79
2021/01/04 04:58:22;;;;;;;8.23;7.63;;;;;;;0.05;4.72;1310630.38;5095065;28;20036;-79
2021/01/04 05:01:02;;;;;;;6.65;5.97;;;;;;;0.05;4.71;1285356.13;5095291;28;20036;-79
2021/01/04 05:03:27;;;;;;;5.85;5.47;;;;;;;0.05;4.71;1262026.25;5094989;28;20032;-79
2021/01/04 05:06:11;;;;;;;6.80;6.40;;;;;;;0.05;4.71;1271747.00;5095208;28;20028;-79
2021/01/04 05:08:50;;;;;;;9.82;6.65;;;;;;;0.05;4.73;1259110.00;5094717;28;20479;-79
2021/01/04 05:11:20;;;;;;;7.10;4.35;;;;;;;0.05;4.72;1246473.00;5094756;28;20020;-79
2021/01/04 05:13:50;;;;;;;5.68;4.88;;;;;;;0.05;4.72;1252305.50;5095521;28;20032;-79
2021/01/04 05:16:24;;;;;;;8.63;4.07;;;;;;;0.05;4.72;1275635.25;5096240;28;20129;-79
2021/01/04 05:19:21;;;;;;;5.88;5.40;;;;;;;0.05;4.72;1285356.13;5094258;28;20039;-79
2021/01/04 05:22:20;;;;;;;4.53;4.07;;;;;;;0.05;4.72;1269802.75;5095311;28;20024;-79
2021/01/04 05:25:02;;;;;;;7.93;5.05;;;;;;;0.05;4.72;1262026.25;5095381;28;20056;-80
2021/01/04 05:27:40;;;;;;;4.03;3.72;;;;;;;0.05;4.72;1252305.50;5095886;28;20528;-79
2021/01/04 05:30:08;;;;;;;4.40;4.10;;;;;;;0.05;4.71;1228975.75;5094976;28;20065;-78
2021/01/04 05:33:15;;;;;;;6.82;4.65;;;;;;;0.05;4.71;1180372.88;5094290;28;20064;-78
2021/01/04 05:35:45;;;;;;;5.37;5.00;;;;;;;0.05;4.70;1144407.63;5035662;28;20511;-79
2021/01/04 05:38:25;;;;;;;6.63;5.88;;;;;;;0.05;4.70;1101638.00;5036373;28;20045;-79
2021/01/04 05:40:57;;;;;;;5.68;4.43;;;;;;;0.05;4.70;1089001.75;5070409;28;20556;-79
2021/01/04 05:43:59;;;;;;;5.30;4.53;;;;;;;0.05;4.70;1059841.00;5094120;28;20032;-79
2021/01/04 05:46:51;;;;;;;4.32;4.13;;;;;;;0.05;4.70;1046232.88;5095343;28;20035;-79
2021/01/04 05:49:38;;;;;;;6.32;5.72;;;;;;;0.05;4.69;1051092.88;5070652;28;20036;-78
2021/01/04 05:52:05;;;;;;;7.38;6.47;;;;;;;0.05;4.70;1043316.81;5094130;28;20036;-79
2021/01/04 05:54:33;;;;;;;6.10;5.70;;;;;;;0.05;4.70;1006380.63;5094211;28;20030;-80
2021/01/04 05:57:10;;;;;;;4.05;3.72;;;;;;;0.05;4.70;1010268.56;5093999;28;20051;-79
2021/01/04 05:59:50;;;;;;;7.57;6.88;;;;;;;0.05;4.70;1004436.13;5093709;28;20035;-80
2021/01/04 06:02:26;;;;;;;12.23;6.40;;;;;;;0.05;4.71;1008324.13;5107134;28;20008;-79
2021/01/04 06:04:53;;;;;;;2.85;2.72;;;;;;;0.05;4.71;1011240.63;5104963;28;20028;-81
2021/01/04 06:07:19;;;;;;;5.30;4.90;;;;;;;0.05;4.71;1006380.63;5093664;28;20123;-81
2021/01/04 06:09:55;;;;;;;5.15;4.47;;;;;;;0.05;4.71;982080.63;5094829;28;20117;-82
2021/01/04 06:12:33;;;;;;;6.00;5.68;;;;;;;0.05;4.71;937369.25;5093532;28;20085;-81
2021/01/04 06:14:59;;;;;;;7.70;5.93;;;;;;;0.05;4.71;934453.25;5093443;28;20074;-80
2021/01/04 06:17:38;;;;;;;5.28;4.82;;;;;;;0.05;4.72;963612.81;5094908;28;20036;-82
2021/01/04 06:20:13;;;;;;;11.68;6.63;;;;;;;0.05;4.73;1013184.13;5094157;28;20060;-83
2021/01/04 06:22:41;;;;;;;18.13;12.13;;;;;;;0.05;4.74;1042344.38;5093274;28;20085;-83
2021/01/04 06:25:08;;;;;;;4.97;4.65;;;;;;;0.05;4.74;1071504.75;5093010;28;20067;-81
2021/01/04 06:27:40;;;;;;;9.73;8.82;;;;;;;0.05;4.75;1086085.13;5092702;28;20028;-81
2021/01/04 06:30:29;;;;;;;9.57;5.97;;;;;;;0.05;4.75;1116218.00;5092995;28;20047;-81
2021/01/04 06:33:09;;;;;;;5.50;5.00;;;;;;;0.05;4.76;1126910.38;5092951;28;20111;-81
2021/01/04 06:35:35;;;;;;;5.25;4.95;;;;;;;0.05;4.77;1131770.63;5092381;28;20056;-82
2021/01/04 06:38:06;;;;;;;4.60;4.25;;;;;;;0.05;4.77;1126910.38;5092975;28;20036;-81
2021/01/04 06:40:31;;;;;;;7.72;5.60;;;;;;;0.05;4.77;1085113.13;5092919;28;20036;-80
2021/01/04 06:42:56;;;;;;;6.85;6.20;;;;;;;0.05;4.77;1037484.31;5093806;28;20027;-81
2021/01/04 06:45:37;;;;;;;7.68;7.05;;;;;;;0.05;4.77;1006380.13;5092752;28;20399;-80
2021/01/04 06:48:12;;;;;;;7.32;5.22;;;;;;;0.05;4.77;966528.31;5091937;28;20032;-81
2021/01/04 06:50:37;;;;;;;4.43;4.13;;;;;;;0.05;4.76;902378.13;5092515;28;20061;-82
2021/01/04 06:53:25;;;;;;;7.93;4.60;;;;;;;0.05;4.76;849892.13;5093827;28;20070;-81
2021/01/04 06:56:20;;;;;;;3.17;3.05;;;;;;;0.05;4.75;818789.69;5092695;28;20111;-81
2021/01/04 06:59:10;;;;;;;4.80;4.40;;;;;;;0.05;4.75;799350.81;5092402;28;20042;-81
2021/01/04 07:01:53;;;;;;;4.47;4.22;;;;;;;0.05;4.75;776996.25;5092037;28;20032;-81
2021/01/04 07:04:33;;;;;;;2.42;2.30;;;;;;;0.05;4.75;747838.38;5093054;28;20032;-80
2021/01/04 07:07:13;;;;;;;3.75;3.17;;;;;;;0.05;4.75;695355.25;5092468;28;20024;-85
2021/01/04 07:09:52;;;;;;;5.18;4.78;;;;;;;0.05;4.75;617603.38;5092232;28;20445;-84
2021/01/04 07:12:25;;;;;;;6.40;3.83;;;;;;;0.05;4.73;566093.75;5092534;28;20084;-83
2021/01/04 07:15:05;;;;;;;6.20;3.38;;;;;;;0.05;4.73;543740.75;5092353;28;20027;-85
2021/01/04 07:18:08;;;;;;;3.03;2.75;;;;;;;0.05;4.72;503894.50;5092254;28;20031;-83
2021/01/04 07:20:40;;;;;;;3.03;2.72;;;;;;;0.05;4.71;508753.78;5034447;28;20500;-85
2021/01/04 07:23:32;;;;;;;3.45;3.28;;;;;;;0.05;4.71;523331.66;5083146;28;20130;-84
2021/01/04 07:26:03;;;;;;;3.85;3.65;;;;;;;0.05;4.71;515556.75;5091985;28;20052;-85
2021/01/04 07:28:55;;;;;;;13.18;5.65;;;;;;;0.05;4.71;505838.19;5092799;28;20028;-84
2021/01/04 07:31:28;;;;;;;3.60;3.30;;;;;;;0.05;4.71;455302.16;5093151;28;20056;-84
2021/01/04 07:33:59;;;;;;;5.95;5.38;;;;;;;0.05;4.69;397964.09;5093333;28;20042;-84
2021/01/04 07:36:34;;;;;;;3.13;2.92;;;;;;;0.05;4.69;370753.16;5092145;28;20395;-84
2021/01/04 07:39:32;;;;;;;4.40;3.13;;;;;;;0.05;4.69;362006.84;5092320;28;20028;-85
2021/01/04 07:42:38;;;;;;;4.47;3.42;;;;;;;0.05;4.69;348401.47;5092053;28;20036;-85
2021/01/04 07:45:15;;;;;;;2.22;2.03;;;;;;;0.05;4.68;329937.19;5092128;28;20115;-85
2021/01/04 07:48:07;;;;;;;3.53;3.33;;;;;;;0.05;4.68;323134.56;5092002;28;20027;-85
2021/01/04 07:51:06;;;;;;;3.05;2.45;;;;;;;0.05;4.69;307585.78;5087813;28;20118;-84
2021/01/04 07:53:47;;;;;;;0.95;0.95;;;;;;;0.05;4.69;283290.97;5091936;28;20020;-85
2021/01/04 07:56:49;;;;;;;1.58;1.58;;;;;;;0.05;4.68;265798.78;5093128;28;20028;-83
2021/01/04 07:59:24;;;;;;;2.60;2.40;;;;;;;0.05;4.69;248306.72;5094991;28;20024;-84
2021/01/04 08:02:11;;;;;;;1.63;1.52;;;;;;;0.05;4.69;223040.56;5095790;28;20039;-83
2021/01/04 08:04:46;;;;;;;1.87;1.77;;;;;;;0.05;4.69;208464.00;5096714;28;20372;-83
2021/01/04 08:07:53;;;;;;;4.57;4.25;;;;;;;0.05;4.69;221097.00;5095967;28;20031;-85
2021/01/04 08:10:43;;;;;;;3.50;3.20;;;;;;;0.05;4.70;207492.25;5096544;28;20376;-84
2021/01/04 08:13:30;;;;;;;6.57;4.03;;;;;;;0.05;4.70;192915.75;5095985;28;20032;-84
2021/01/04 08:16:00;;;;;;;4.20;3.22;;;;;;;0.05;4.70;174452.31;5095864;28;20028;-85
2021/01/04 08:18:26;;;;;;;2.92;2.72;;;;;;;0.05;4.69;117119.09;5096817;28;20035;-85
2021/01/04 08:21:04;;;;;;;10.68;2.25;;;;;;;0.05;4.68;48126.19;5096385;28;20032;-85
2021/01/04 08:23:45;;;;;;;7.22;6.63;;;;;;;0.05;4.68;42295.88;5094906;28;20039;-85
2021/01/04 08:26:46;;;;;;;17.77;9.13;;;;;;;0.05;4.68;-9204.38;5095456;28;20587;-83
2021/01/04 08:29:15;;;;;;;4.53;3.92;;;;;;;0.05;4.68;-39327.06;5091020;28;20032;-82
2021/01/04 08:31:57;;;;;;;8.57;7.70;;;;;;;0.05;4.68;-88882.69;5095367;28;20039;-82
2021/01/04 08:34:23;;;;;;;6.35;5.85;;;;;;;0.05;4.68;-107344.56;5096124;28;20115;-84
2021/01/04 08:36:59;;;;;;;10.43;9.50;;;;;;;0.05;4.68;-159814.63;5095866;28;20024;-83
2021/01/04 08:39:25;;;;;;;12.52;4.20;;;;;;;0.05;4.67;-214227.13;5095362;28;20031;-82
2021/01/04 08:42:04;;;;;;;8.98;6.05;;;;;;;0.05;4.67;-287099.63;5096360;28;20402;-83
2021/01/04 08:44:32;;;;;;;11.00;2.78;;;;;;;0.05;4.66;-375516.13;5094210;28;20492;-82
2021/01/04 08:47:16;;;;;;;11.85;6.15;;;;;;;0.05;4.64;-477532.22;5093635;28;20028;-81
2021/01/04 08:49:46;;;;;;;11.98;6.90;;;;;;;0.05;4.63;-519309.31;5093495;28;20027;-82
2021/01/04 08:52:17;;;;;;;7.18;3.72;;;;;;;0.05;4.63;-538740.38;5094777;28;20028;-82
2021/01/04 08:54:42;;;;;;;5.72;2.55;;;;;;;0.05;4.64;-549427.38;5096241;28;20028;-82
2021/01/04 08:57:21;;;;;;;3.85;2.60;;;;;;;0.05;4.64;-568858.25;5096671;28;20182;-80
2021/01/04 08:59:57;;;;;;;5.20;4.75;;;;;;;0.05;4.64;-579545.19;5096602;28;20028;-81
2021/01/04 09:02:37;;;;;;;8.23;5.65;;;;;;;0.05;4.64;-588289.00;5095927;28;20192;-80
2021/01/04 09:05:06;;;;;;;11.38;4.18;;;;;;;0.05;4.65;-605776.56;5095524;28;20368;-81
2021/01/04 09:07:32;;;;;;;2.22;2.08;;;;;;;0.05;4.65;-650466.63;5095940;28;20056;-82
2021/01/04 09:10:17;;;;;;;3.05;2.45;;;;;;;0.05;4.64;-714586.06;5095355;28;20046;-81
2021/01/04 09:12:46;;;;;;;1.98;1.88;;;;;;;0.05;4.63;-755388.75;5094850;28;20039;-80
2021/01/04 09:15:21;;;;;;;2.03;1.85;;;;;;;0.05;4.63;-801048.25;5094754;28;20028;-81
2021/01/04 09:18:31;;;;;;;6.03;4.30;;;;;;;0.05;4.63;-835049.63;5096422;28;20118;-80
2021/01/04 09:21:06;;;;;;;2.03;1.92;;;;;;;0.05;4.63;-896251.13;5085067;28;20093;-78
2021/01/04 09:23:36;;;;;;;3.20;3.05;;;;;;;0.05;4.60;-945794.50;5096237;28;20032;-78
2021/01/04 09:26:07;;;;;;;2.50;2.35;;;;;;;0.05;4.60;-951622.63;5094304;28;20063;-82
2021/01/04 09:28:45;;;;;;;0.93;0.93;;;;;;;0.05;4.61;-991450.88;5095728;28;20095;-82
2021/01/04 09:31:16;;;;;;;2.47;2.28;;;;;;;0.05;4.61;-1020593.25;5094460;28;20036;-83
2021/01/04 09:33:44;;;;;;;0.88;0.88;;;;;;;0.05;4.61;-1019621.88;5094558;28;20031;-79
2021/01/04 09:36:10;;;;;;;1.58;1.50;;;;;;;0.05;4.62;-1034193.38;5095266;28;20027;-80
2021/01/04 09:38:36;;;;;;;1.50;1.40;;;;;;;0.05;4.61;-1049735.38;5094236;28;20036;-80
2021/01/04 09:41:08;;;;;;;2.85;1.98;;;;;;;0.05;4.61;-1075963.50;5094215;28;20090;-80
2021/01/04 09:43:36;;;;;;;2.15;2.05;;;;;;;0.05;4.61;-1104133.25;5093979;28;20028;-79
2021/01/04 09:46:14;;;;;;;7.65;0.98;;;;;;;0.05;4.62;-1132303.38;5094093;28;20039;-84
2021/01/04 09:48:47;;;;;;;1.77;1.67;;;;;;;0.05;4.60;-1188642.63;5094611;28;20035;-82
2021/01/04 09:51:19;;;;;;;1.05;1.05;;;;;;;0.05;4.60;-1219726.00;5094693;28;20165;-82
2021/01/04 09:53:56;;;;;;;1.02;1.02;;;;;;;0.05;4.60;-1270235.75;5094251;28;20055;-82
2021/01/04 09:56:28;;;;;;;2.80;1.25;;;;;;;0.05;4.61;-1287719.75;5095010;28;20120;-81
2021/01/04 09:59:07;;;;;;;0.75;0.75;;;;;;;0.05;4.62;-1278006.50;5095005;28;20058;-81
2021/01/04 10:01:42;;;;;;;0.75;0.75;;;;;;;0.05;4.63;-1255665.75;5095084;28;20032;-82
2021/01/04 10:04:08;;;;;;;3.50;2.85;;;;;;;0.05;4.64;-1234296.63;5094905;28;20028;-81
2021/01/04 10:06:35;;;;;;;1.63;1.52;;;;;;;0.05;4.65;-1191557.13;5094816;28;20031;-80
2021/01/04 10:09:05;;;;;;;1.42;1.38;;;;;;;0.05;4.65;-1190585.75;5094054;28;20032;-80
2021/01/04 10:11:31;;;;;;;0.30;0.30;;;;;;;0.05;4.66;-1189614.50;5093389;28;20410;-82
2021/01/04 10:14:12;;;;;;;1.83;1.75;;;;;;;0.05;4.66;-1216812.38;5093417;28;20024;-80
2021/01/04 10:16:40;;;;;;;7.30;2.85;;;;;;;0.05;4.66;-1216812.38;5094317;28;20054;-81
2021/01/04 10:19:12;;;;;;;1.58;1.50;;;;;;;0.05;4.66;-1213898.25;5093206;28;20028;-81
2021/01/04 10:21:53;;;;;;;0.68;0.68;;;;;;;0.05;4.67;-1245952.75;5093003;28;20039;-84
2021/01/04 10:24:23;;;;;;;0.55;0.55;;;;;;;0.05;4.67;-1316860.00;5093383;28;20035;-81
2021/01/04 10:26:51;;;;;;;1.20;0.93;;;;;;;0.05;4.66;-1424674.88;5093710;28;20024;-83
2021/01/04 10:29:22;;;;;;;1.17;1.17;;;;;;;0.05;4.63;-1559681.50;5094119;28;20028;-82
2021/01/04 10:31:51;;;;;;;0.93;0.93;;;;;;;0.05;4.62;-1652920.13;5092919;28;20058;-81
2021/01/04 10:34:19;;;;;;;1.42;1.27;;;;;;;0.05;4.62;-1730616.63;5093902;28;20057;-85
2021/01/04 10:37:04;;;;;;;2.42;1.13;;;;;;;0.05;4.63;-1785003.50;5092949;28;20020;-84
2021/01/04 10:39:38;;;;;;;2.20;2.10;;;;;;;0.05;4.62;-1849101.00;5092355;28;20036;-82
2021/01/04 10:42:11;;;;;;;1.77;1.75;;;;;;;0.05;4.61;-1940389.25;5092661;28;20031;-83
2021/01/04 10:44:37;;;;;;;0.73;0.73;;;;;;;0.05;4.61;-1992830.38;5094215;28;20131;-79
2021/01/04 10:47:32;;;;;;;2.33;2.03;;;;;;;0.05;4.60;-2040415.13;5092689;28;20463;-80
2021/01/04 10:50:16;;;;;;;1.35;1.27;;;;;;;0.05;4.61;-2090912.38;5039446;28;20509;-81
2021/01/04 10:53:04;;;;;;;0.65;0.65;;;;;;;0.06;4.59;-2188020.00;5092589;28;20449;-80
2021/01/04 10:55:31;;;;;;;0.20;0.20;;;;;;;0.06;4.57;-2271530.75;5092571;28;20036;-81
2021/01/04 10:58:22;;;;;;;1.48;1.45;;;;;;;0.05;4.56;-2319111.75;5093453;28;20040;-80
2021/01/04 11:00:55;;;;;;;2.20;2.10;;;;;;;0.06;4.56;-2355039.25;5109521;28;20040;-80
2021/01/04 11:03:20;;;;;;;2.25;1.55;;;;;;;0.06;4.56;-2404560.75;5092817;28;20020;-80
2021/01/04 11:05:49;;;;;;;0.93;0.93;;;;;;;0.06;4.56;-2473501.25;5093312;28;20376;-80
2021/01/04 11:08:23;;;;;;;0.98;0.98;;;;;;;0.06;4.55;-2583220.50;5093326;28;20479;-82
2021/01/04 11:11:26;;;;;;;2.53;2.33;;;;;;;0.06;4.53;-2681284.50;5092621;28;20080;-82
2021/01/04 11:13:51;;;;;;;2.05;1.83;;;;;;;0.06;4.53;-2789055.25;5093454;28;20479;-81
2021/01/04 11:16:19;;;;;;;1.25;1.17;;;;;;;0.06;4.52;-2870609.00;5093498;28;20103;-81
2021/01/04 11:19:02;;;;;;;1.00;1.00;;;;;;;0.06;4.53;-2924006.25;5091829;28;20050;-79
2021/01/04 11:21:44;;;;;;;1.08;1.02;;;;;;;0.06;4.54;-2917210.25;5088645;28;20063;-82
2021/01/04 11:24:10;;;;;;;0.50;0.50;;;;;;;0.06;4.54;-2860900.25;5092823;28;20031;-83
2021/01/04 11:26:41;;;;;;;1.65;1.58;;;;;;;0.06;4.55;-2834686.75;5092131;28;20070;-84
2021/01/04 11:29:06;;;;;;;2.65;2.45;;;;;;;0.06;4.57;-2807502.50;5092109;28;20119;-84
2021/01/04 11:31:33;;;;;;;6.38;1.20;;;;;;;0.06;4.57;-2806531.75;5093113;28;20099;-84
2021/01/04 11:33:59;;;;;;;2.20;2.10;;;;;;;0.06;4.56;-2813327.75;5091531;28;20043;-85
2021/01/04 11:36:24;;;;;;;1.33;1.33;;;;;;;0.06;4.57;-2834687.25;5091667;28;20491;-83
2021/01/04 11:38:50;;;;;;;0.63;0.63;;;;;;;0.06;4.57;-2873522.00;5091927;28;20123;-83
2021/01/04 11:41:15;;;;;;;0.50;0.50;;;;;;;0.06;4.57;-2875463.75;5090414;28;20027;-83
2021/01/04 11:43:42;;;;;;;0.93;0.60;;;;;;;0.06;4.57;-2872551.25;5092478;28;20066;-83
2021/01/04 11:46:09;;;;;;;2.85;2.28;;;;;;;0.06;4.57;-2886143.25;5091917;28;20020;-84
2021/01/04 11:48:34;;;;;;;0.90;0.90;;;;;;;0.06;4.57;-2861871.75;5092543;28;20038;-82
2021/01/04 11:51:00;;;;;;;1.25;1.15;;;;;;;0.06;4.58;-2855075.50;5091996;28;20028;-83
2021/01/04 11:53:28;;;;;;;1.33;1.15;;;;;;;0.06;4.58;-2850221.25;5091607;28;20043;-84
2021/01/04 11:55:54;;;;;;;1.58;1.48;;;;;;;0.06;4.59;-2838570.75;5092903;28;20028;-83
2021/01/04 11:58:19;;;;;;;2.20;2.10;;;;;;;0.06;4.59;-2825949.25;5091508;28;20113;-83
2021/01/04 12:00:45;;;;;;;1.88;1.77;;;;;;;0.06;4.60;-2789055.75;5091861;28;20028;-83
2021/01/04 12:03:11;;;;;;;3.30;1.70;;;;;;;0.06;4.61;-2785172.00;5091572;28;20402;-83
2021/01/04 12:05:36;;;;;;;2.53;1.27;;;;;;;0.05;4.61;-2769638.25;5091468;28;20031;-83
2021/01/04 12:08:02;;;;;;;1.50;1.45;;;;;;;0.06;4.61;-2790026.50;5092133;28;20036;-83
2021/01/04 12:10:28;;;;;;;10.98;4.85;;;;;;;0.06;4.60;-2816240.50;5092699;28;20507;-83
2021/01/04 12:12:53;;;;;;;2.42;2.22;;;;;;;0.06;4.60;-2836629.00;5091520;28;20024;-83
2021/01/04 12:15:19;;;;;;;0.60;0.60;;;;;;;0.06;4.59;-2858959.00;5091302;28;20468;-82